sensor_id;sensor_type;location;lat;lon;timestamp;pressure;altitude;pressure_sealevel;temperature;humidity
24996;BME280;13016;52.162;21.034;2023-02-15T00:02:05;102203.51;;;10.78;56.28
24996;BME280;13016;52.162;21.034;2023-02-15T00:04:30;102203.29;;;10.69;55.87
24996;BME280;13016;52.162;21.034;2023-02-15T00:06:55;102196.17;;;10.70;56.22
24996;BME280;13016;52.162;21.034;2023-02-15T00:09:21;102200.27;;;10.74;56.01
24996;BME280;13016;52.162;21.034;2023-02-15T00:11:46;102201.56;;;10.78;56.10
24996;BME280;13016;52.162;21.034;2023-02-15T00:14:14;102204.16;;;10.79;55.89
24996;BME280;13016;52.162;21.034;2023-02-15T00:16:41;102201.59;;;10.71;55.95
24996;BME280;13016;52.162;21.034;2023-02-15T00:19:08;102204.43;;;10.71;55.94
24996;BME280;13016;52.162;21.034;2023-02-15T00:21:36;102201.74;;;10.72;56.11
24996;BME280;13016;52.162;21.034;2023-02-15T00:24:03;102199.98;;;10.72;55.82
24996;BME280;13016;52.162;21.034;2023-02-15T00:26:29;102199.39;;;10.74;56.06
24996;BME280;13016;52.162;21.034;2023-02-15T00:28:55;102191.09;;;10.79;55.87
24996;BME280;13016;52.162;21.034;2023-02-15T00:31:21;102192.11;;;10.81;56.09
24996;BME280;13016;52.162;21.034;2023-02-15T00:33:47;102190.69;;;10.81;55.78
24996;BME280;13016;52.162;21.034;2023-02-15T00:36:13;102187.98;;;10.83;55.90
24996;BME280;13016;52.162;21.034;2023-02-15T00:38:38;102184.44;;;10.83;55.69
24996;BME280;13016;52.162;21.034;2023-02-15T00:41:06;102188.84;;;10.67;55.60
24996;BME280;13016;52.162;21.034;2023-02-15T00:43:33;102183.27;;;10.60;56.10
24996;BME280;13016;52.162;21.034;2023-02-15T00:45:59;102179.65;;;10.63;56.28
24996;BME280;13016;52.162;21.034;2023-02-15T00:48:25;102175.88;;;10.75;56.27
24996;BME280;13016;52.162;21.034;2023-02-15T00:51:00;102170.36;;;10.77;55.95
24996;BME280;13016;52.162;21.034;2023-02-15T00:53:27;102170.00;;;10.71;56.07
24996;BME280;13016;52.162;21.034;2023-02-15T00:55:58;102163.69;;;10.70;56.06
24996;BME280;13016;52.162;21.034;2023-02-15T00:58:23;102160.52;;;10.75;56.04
24996;BME280;13016;52.162;21.034;2023-02-15T01:00:49;102163.65;;;10.82;56.28
24996;BME280;13016;52.162;21.034;2023-02-15T01:03:15;102166.20;;;10.90;56.14
24996;BME280;13016;52.162;21.034;2023-02-15T01:05:41;102168.42;;;10.97;56.17
24996;BME280;13016;52.162;21.034;2023-02-15T01:08:06;102167.77;;;11.06;55.68
24996;BME280;13016;52.162;21.034;2023-02-15T01:10:33;102163.02;;;10.84;55.30
24996;BME280;13016;52.162;21.034;2023-02-15T01:12:59;102160.30;;;10.87;55.77
24996;BME280;13016;52.162;21.034;2023-02-15T01:15:24;102156.97;;;10.91;55.92
24996;BME280;13016;52.162;21.034;2023-02-15T01:17:50;102154.16;;;10.96;55.74
24996;BME280;13016;52.162;21.034;2023-02-15T01:20:17;102152.08;;;10.89;55.50
24996;BME280;13016;52.162;21.034;2023-02-15T01:22:42;102150.00;;;10.83;55.60
24996;BME280;13016;52.162;21.034;2023-02-15T01:25:08;102146.52;;;10.77;55.78
24996;BME280;13016;52.162;21.034;2023-02-15T01:27:33;102146.09;;;10.74;55.88
24996;BME280;13016;52.162;21.034;2023-02-15T01:29:58;102147.94;;;10.76;56.04
24996;BME280;13016;52.162;21.034;2023-02-15T01:32:24;102149.97;;;10.84;55.97
24996;BME280;13016;52.162;21.034;2023-02-15T01:34:49;102146.63;;;10.89;56.03
24996;BME280;13016;52.162;21.034;2023-02-15T01:37:14;102145.69;;;10.95;55.88
24996;BME280;13016;52.162;21.034;2023-02-15T01:39:39;102148.15;;;10.91;55.67
24996;BME280;13016;52.162;21.034;2023-02-15T01:42:05;102144.89;;;10.93;55.71
24996;BME280;13016;52.162;21.034;2023-02-15T01:44:59;102146.73;;;10.86;55.47
24996;BME280;13016;52.162;21.034;2023-02-15T01:47:45;102145.67;;;10.81;55.71
24996;BME280;13016;52.162;21.034;2023-02-15T01:50:37;102145.25;;;10.88;55.88
24996;BME280;13016;52.162;21.034;2023-02-15T01:55:39;102140.64;;;10.84;55.76
24996;BME280;13016;52.162;21.034;2023-02-15T01:58:06;102141.29;;;10.85;55.75
24996;BME280;13016;52.162;21.034;2023-02-15T02:00:33;102145.02;;;10.84;55.95
24996;BME280;13016;52.162;21.034;2023-02-15T02:02:59;102142.75;;;10.94;56.08
24996;BME280;13016;52.162;21.034;2023-02-15T02:05:25;102136.89;;;10.95;55.62
24996;BME280;13016;52.162;21.034;2023-02-15T02:07:52;102136.50;;;10.90;55.61
24996;BME280;13016;52.162;21.034;2023-02-15T02:10:21;102134.45;;;10.84;55.49
24996;BME280;13016;52.162;21.034;2023-02-15T02:12:49;102132.23;;;10.76;55.67
24996;BME280;13016;52.162;21.034;2023-02-15T02:15:16;102134.34;;;10.77;55.73
24996;BME280;13016;52.162;21.034;2023-02-15T02:20:17;102135.60;;;10.86;56.08
24996;BME280;13016;52.162;21.034;2023-02-15T02:36:56;102114.60;;;10.96;55.64
24996;BME280;13016;52.162;21.034;2023-02-15T02:42:04;102113.04;;;10.95;55.47
24996;BME280;13016;52.162;21.034;2023-02-15T02:44:43;102113.95;;;10.90;55.56
24996;BME280;13016;52.162;21.034;2023-02-15T02:50:16;102109.18;;;10.75;55.64
24996;BME280;13016;52.162;21.034;2023-02-15T02:52:44;102108.67;;;10.74;55.84
24996;BME280;13016;52.162;21.034;2023-02-15T02:58:29;102103.67;;;10.60;56.03
24996;BME280;13016;52.162;21.034;2023-02-15T03:04:12;102108.80;;;10.55;56.56
24996;BME280;13016;52.162;21.034;2023-02-15T03:06:52;102104.36;;;10.56;56.40
24996;BME280;13016;52.162;21.034;2023-02-15T03:09:26;102106.36;;;10.54;56.60
24996;BME280;13016;52.162;21.034;2023-02-15T03:11:52;102104.94;;;10.65;56.43
24996;BME280;13016;52.162;21.034;2023-02-15T03:14:18;102102.12;;;10.54;56.33
24996;BME280;13016;52.162;21.034;2023-02-15T03:16:47;102103.88;;;10.59;56.43
24996;BME280;13016;52.162;21.034;2023-02-15T03:19:39;102103.16;;;10.60;56.43
24996;BME280;13016;52.162;21.034;2023-02-15T03:22:24;102100.66;;;10.55;56.43
24996;BME280;13016;52.162;21.034;2023-02-15T03:25:05;102101.95;;;10.69;56.70
24996;BME280;13016;52.162;21.034;2023-02-15T03:27:36;102099.21;;;10.77;56.10
24996;BME280;13016;52.162;21.034;2023-02-15T03:30:04;102104.27;;;10.74;56.25
24996;BME280;13016;52.162;21.034;2023-02-15T03:32:44;102108.64;;;10.90;56.16
24996;BME280;13016;52.162;21.034;2023-02-15T03:37:59;102104.89;;;10.61;55.96
24996;BME280;13016;52.162;21.034;2023-02-15T03:40:50;102099.36;;;10.72;56.22
24996;BME280;13016;52.162;21.034;2023-02-15T03:47:20;102105.16;;;10.88;55.83
24996;BME280;13016;52.162;21.034;2023-02-15T03:50:10;102103.84;;;10.95;55.90
24996;BME280;13016;52.162;21.034;2023-02-15T03:52:38;102100.41;;;10.87;55.35
24996;BME280;13016;52.162;21.034;2023-02-15T03:55:03;102097.16;;;10.90;55.63
24996;BME280;13016;52.162;21.034;2023-02-15T03:57:29;102096.29;;;10.95;55.59
24996;BME280;13016;52.162;21.034;2023-02-15T03:59:54;102098.55;;;10.95;55.38
24996;BME280;13016;52.162;21.034;2023-02-15T04:02:25;102097.55;;;10.94;55.55
24996;BME280;13016;52.162;21.034;2023-02-15T04:04:53;102096.96;;;10.95;55.27
24996;BME280;13016;52.162;21.034;2023-02-15T04:07:18;102097.17;;;10.94;55.33
24996;BME280;13016;52.162;21.034;2023-02-15T04:09:43;102090.56;;;10.96;55.36
24996;BME280;13016;52.162;21.034;2023-02-15T04:12:08;102092.02;;;10.95;55.58
24996;BME280;13016;52.162;21.034;2023-02-15T04:14:34;102090.11;;;10.84;54.98
24996;BME280;13016;52.162;21.034;2023-02-15T04:16:59;102089.31;;;10.77;55.64
24996;BME280;13016;52.162;21.034;2023-02-15T04:19:24;102088.84;;;10.85;55.48
24996;BME280;13016;52.162;21.034;2023-02-15T04:21:50;102091.19;;;10.84;55.30
24996;BME280;13016;52.162;21.034;2023-02-15T04:24:15;102088.85;;;10.90;55.27
24996;BME280;13016;52.162;21.034;2023-02-15T04:26:41;102092.30;;;10.97;55.17
24996;BME280;13016;52.162;21.034;2023-02-15T04:29:06;102089.95;;;10.94;54.97
24996;BME280;13016;52.162;21.034;2023-02-15T04:31:32;102088.83;;;10.76;54.43
24996;BME280;13016;52.162;21.034;2023-02-15T04:33:57;102088.90;;;10.59;55.26
24996;BME280;13016;52.162;21.034;2023-02-15T04:36:22;102081.86;;;10.73;55.37
24996;BME280;13016;52.162;21.034;2023-02-15T04:38:48;102083.80;;;10.78;55.23
24996;BME280;13016;52.162;21.034;2023-02-15T04:41:13;102078.83;;;10.64;55.06
24996;BME280;13016;52.162;21.034;2023-02-15T04:43:38;102081.84;;;10.69;55.51
24996;BME280;13016;52.162;21.034;2023-02-15T04:46:04;102081.40;;;10.71;55.22
24996;BME280;13016;52.162;21.034;2023-02-15T04:48:29;102081.06;;;10.71;55.17
24996;BME280;13016;52.162;21.034;2023-02-15T04:50:54;102080.66;;;10.72;55.16
24996;BME280;13016;52.162;21.034;2023-02-15T04:53:20;102078.35;;;10.63;55.06
24996;BME280;13016;52.162;21.034;2023-02-15T04:55:45;102079.23;;;10.62;55.09
24996;BME280;13016;52.162;21.034;2023-02-15T04:58:10;102083.29;;;10.68;55.29
24996;BME280;13016;52.162;21.034;2023-02-15T05:00:36;102086.00;;;10.71;55.03
24996;BME280;13016;52.162;21.034;2023-02-15T05:03:01;102083.92;;;10.70;55.19
24996;BME280;13016;52.162;21.034;2023-02-15T05:05:26;102085.04;;;10.73;54.98
24996;BME280;13016;52.162;21.034;2023-02-15T05:07:51;102085.41;;;10.68;54.78
24996;BME280;13016;52.162;21.034;2023-02-15T05:10:17;102087.14;;;10.53;54.74
24996;BME280;13016;52.162;21.034;2023-02-15T05:12:42;102086.17;;;10.61;55.01
24996;BME280;13016;52.162;21.034;2023-02-15T05:15:08;102089.68;;;10.56;54.93
24996;BME280;13016;52.162;21.034;2023-02-15T05:17:33;102094.70;;;10.64;55.09
24996;BME280;13016;52.162;21.034;2023-02-15T05:19:59;102096.75;;;10.56;54.88
24996;BME280;13016;52.162;21.034;2023-02-15T05:22:24;102101.71;;;10.55;55.13
24996;BME280;13016;52.162;21.034;2023-02-15T05:24:49;102100.42;;;10.62;55.17
24996;BME280;13016;52.162;21.034;2023-02-15T05:27:15;102102.50;;;10.53;54.96
24996;BME280;13016;52.162;21.034;2023-02-15T05:29:40;102103.41;;;10.47;55.22
24996;BME280;13016;52.162;21.034;2023-02-15T05:32:05;102107.54;;;10.50;55.61
24996;BME280;13016;52.162;21.034;2023-02-15T05:34:30;102111.96;;;10.60;55.33
24996;BME280;13016;52.162;21.034;2023-02-15T05:36:56;102106.88;;;10.49;55.19
24996;BME280;13016;52.162;21.034;2023-02-15T05:39:21;102105.75;;;10.46;55.36
24996;BME280;13016;52.162;21.034;2023-02-15T05:41:46;102104.19;;;10.39;55.51
24996;BME280;13016;52.162;21.034;2023-02-15T05:44:11;102098.14;;;10.35;55.55
24996;BME280;13016;52.162;21.034;2023-02-15T05:46:37;102099.56;;;10.24;55.97
24996;BME280;13016;52.162;21.034;2023-02-15T05:49:02;102096.71;;;10.41;55.98
24996;BME280;13016;52.162;21.034;2023-02-15T05:51:27;102099.21;;;10.46;55.78
24996;BME280;13016;52.162;21.034;2023-02-15T05:53:53;102095.77;;;10.53;55.58
24996;BME280;13016;52.162;21.034;2023-02-15T05:56:18;102097.55;;;10.48;55.21
24996;BME280;13016;52.162;21.034;2023-02-15T05:58:43;102097.45;;;10.40;55.19
24996;BME280;13016;52.162;21.034;2023-02-15T06:01:14;102100.95;;;10.47;55.73
24996;BME280;13016;52.162;21.034;2023-02-15T06:03:40;102101.27;;;10.63;55.43
24996;BME280;13016;52.162;21.034;2023-02-15T06:06:06;102100.13;;;10.60;54.99
24996;BME280;13016;52.162;21.034;2023-02-15T06:08:32;102102.11;;;10.49;54.97
24996;BME280;13016;52.162;21.034;2023-02-15T06:10:58;102102.46;;;10.43;55.15
24996;BME280;13016;52.162;21.034;2023-02-15T06:13:23;102101.56;;;10.44;55.27
24996;BME280;13016;52.162;21.034;2023-02-15T06:15:52;102107.11;;;10.36;55.60
24996;BME280;13016;52.162;21.034;2023-02-15T06:18:17;102107.80;;;10.31;55.54
24996;BME280;13016;52.162;21.034;2023-02-15T06:24:04;102106.77;;;10.19;55.69
24996;BME280;13016;52.162;21.034;2023-02-15T06:26:30;102106.11;;;10.18;56.07
24996;BME280;13016;52.162;21.034;2023-02-15T06:28:55;102107.39;;;10.28;56.04
24996;BME280;13016;52.162;21.034;2023-02-15T06:31:20;102106.80;;;10.29;55.94
24996;BME280;13016;52.162;21.034;2023-02-15T06:33:45;102108.38;;;10.29;55.88
24996;BME280;13016;52.162;21.034;2023-02-15T06:36:30;102106.73;;;10.31;55.89
24996;BME280;13016;52.162;21.034;2023-02-15T06:38:56;102111.39;;;10.29;55.74
24996;BME280;13016;52.162;21.034;2023-02-15T06:41:53;102114.35;;;10.25;55.78
24996;BME280;13016;52.162;21.034;2023-02-15T06:44:18;102118.35;;;10.26;55.90
24996;BME280;13016;52.162;21.034;2023-02-15T06:47:13;102117.15;;;10.31;56.03
24996;BME280;13016;52.162;21.034;2023-02-15T06:49:38;102116.39;;;10.33;55.74
24996;BME280;13016;52.162;21.034;2023-02-15T06:52:04;102111.96;;;10.33;55.75
24996;BME280;13016;52.162;21.034;2023-02-15T06:54:29;102115.70;;;10.37;55.79
24996;BME280;13016;52.162;21.034;2023-02-15T06:56:55;102111.31;;;10.37;55.55
24996;BME280;13016;52.162;21.034;2023-02-15T06:59:20;102109.15;;;10.44;55.64
24996;BME280;13016;52.162;21.034;2023-02-15T07:01:45;102108.61;;;10.39;55.13
24996;BME280;13016;52.162;21.034;2023-02-15T07:04:10;102112.02;;;10.32;55.42
24996;BME280;13016;52.162;21.034;2023-02-15T07:06:36;102111.22;;;10.46;55.56
24996;BME280;13016;52.162;21.034;2023-02-15T07:09:02;102107.59;;;10.32;55.02
24996;BME280;13016;52.162;21.034;2023-02-15T07:11:28;102111.44;;;10.22;55.32
24996;BME280;13016;52.162;21.034;2023-02-15T07:13:53;102108.80;;;10.27;55.59
24996;BME280;13016;52.162;21.034;2023-02-15T07:16:19;102109.09;;;10.40;55.74
24996;BME280;13016;52.162;21.034;2023-02-15T07:18:45;102102.64;;;10.33;55.51
24996;BME280;13016;52.162;21.034;2023-02-15T07:21:10;102099.05;;;10.29;55.64
24996;BME280;13016;52.162;21.034;2023-02-15T07:23:36;102104.85;;;10.35;55.64
24996;BME280;13016;52.162;21.034;2023-02-15T07:26:14;102104.96;;;10.32;55.80
24996;BME280;13016;52.162;21.034;2023-02-15T07:28:51;102103.13;;;10.29;55.85
24996;BME280;13016;52.162;21.034;2023-02-15T07:34:22;102103.73;;;9.91;56.32
24996;BME280;13016;52.162;21.034;2023-02-15T07:36:51;102101.84;;;9.90;56.75
24996;BME280;13016;52.162;21.034;2023-02-15T07:39:51;102099.40;;;10.07;56.58
24996;BME280;13016;52.162;21.034;2023-02-15T07:42:16;102099.43;;;10.12;56.47
24996;BME280;13016;52.162;21.034;2023-02-15T07:44:42;102100.23;;;10.08;56.34
24996;BME280;13016;52.162;21.034;2023-02-15T07:47:07;102099.39;;;10.13;56.60
24996;BME280;13016;52.162;21.034;2023-02-15T07:49:32;102096.44;;;9.94;56.46
24996;BME280;13016;52.162;21.034;2023-02-15T07:52:00;102092.19;;;9.89;56.70
24996;BME280;13016;52.162;21.034;2023-02-15T07:54:25;102092.04;;;9.71;57.25
24996;BME280;13016;52.162;21.034;2023-02-15T07:56:51;102090.39;;;9.79;57.16
24996;BME280;13016;52.162;21.034;2023-02-15T07:59:16;102093.56;;;9.96;57.19
24996;BME280;13016;52.162;21.034;2023-02-15T08:01:41;102093.48;;;9.88;56.51
24996;BME280;13016;52.162;21.034;2023-02-15T08:04:07;102093.35;;;9.74;57.10
24996;BME280;13016;52.162;21.034;2023-02-15T08:06:34;102092.77;;;9.82;57.10
24996;BME280;13016;52.162;21.034;2023-02-15T08:09:03;102088.58;;;9.80;56.81
24996;BME280;13016;52.162;21.034;2023-02-15T08:11:31;102089.60;;;9.41;57.75
24996;BME280;13016;52.162;21.034;2023-02-15T08:19:09;102080.51;;;10.02;56.12
24996;BME280;13016;52.162;21.034;2023-02-15T08:21:38;102084.07;;;9.95;56.08
24996;BME280;13016;52.162;21.034;2023-02-15T08:24:05;102085.70;;;9.94;55.88
24996;BME280;13016;52.162;21.034;2023-02-15T08:26:31;102083.05;;;9.88;55.82
24996;BME280;13016;52.162;21.034;2023-02-15T08:28:59;102081.62;;;9.89;55.97
24996;BME280;13016;52.162;21.034;2023-02-15T08:31:25;102079.72;;;9.29;56.70
24996;BME280;13016;52.162;21.034;2023-02-15T08:33:52;102079.78;;;9.39;56.85
24996;BME280;13016;52.162;21.034;2023-02-15T08:36:21;102079.17;;;9.54;56.57
24996;BME280;13016;52.162;21.034;2023-02-15T08:39:18;102080.34;;;9.50;56.39
24996;BME280;13016;52.162;21.034;2023-02-15T08:41:45;102079.95;;;9.46;56.83
24996;BME280;13016;52.162;21.034;2023-02-15T08:44:11;102076.45;;;9.08;57.37
24996;BME280;13016;52.162;21.034;2023-02-15T08:49:22;102075.13;;;9.11;57.81
24996;BME280;13016;52.162;21.034;2023-02-15T08:51:48;102073.60;;;9.34;57.41
24996;BME280;13016;52.162;21.034;2023-02-15T08:54:17;102072.30;;;9.54;57.03
24996;BME280;13016;52.162;21.034;2023-02-15T08:56:44;102066.85;;;9.59;56.62
24996;BME280;13016;52.162;21.034;2023-02-15T08:59:16;102064.95;;;9.52;56.31
24996;BME280;13016;52.162;21.034;2023-02-15T09:01:41;102062.67;;;9.21;56.71
24996;BME280;13016;52.162;21.034;2023-02-15T09:04:08;102059.17;;;8.90;57.53
24996;BME280;13016;52.162;21.034;2023-02-15T09:06:34;102059.73;;;8.89;57.90
24996;BME280;13016;52.162;21.034;2023-02-15T09:09:00;102055.91;;;9.18;57.74
24996;BME280;13016;52.162;21.034;2023-02-15T09:11:28;102052.37;;;9.43;57.22
24996;BME280;13016;52.162;21.034;2023-02-15T09:13:56;102052.52;;;9.32;57.05
24996;BME280;13016;52.162;21.034;2023-02-15T09:16:23;102048.98;;;9.14;57.40
24996;BME280;13016;52.162;21.034;2023-02-15T09:18:50;102053.23;;;9.38;57.34
24996;BME280;13016;52.162;21.034;2023-02-15T09:21:18;102049.85;;;9.45;56.91
24996;BME280;13016;52.162;21.034;2023-02-15T09:23:45;102050.91;;;9.68;56.66
24996;BME280;13016;52.162;21.034;2023-02-15T09:26:14;102044.95;;;9.67;56.18
24996;BME280;13016;52.162;21.034;2023-02-15T09:28:40;102044.59;;;9.33;56.61
24996;BME280;13016;52.162;21.034;2023-02-15T09:33:36;102045.21;;;9.35;57.48
24996;BME280;13016;52.162;21.034;2023-02-15T09:36:06;102040.74;;;9.49;57.04
24996;BME280;13016;52.162;21.034;2023-02-15T09:38:38;102041.02;;;9.46;56.99
24996;BME280;13016;52.162;21.034;2023-02-15T09:44:03;102042.46;;;9.50;57.31
24996;BME280;13016;52.162;21.034;2023-02-15T09:52:02;102041.58;;;9.56;57.02
24996;BME280;13016;52.162;21.034;2023-02-15T09:54:46;102036.48;;;9.84;56.78
24996;BME280;13016;52.162;21.034;2023-02-15T10:00:00;102035.21;;;9.90;56.40
24996;BME280;13016;52.162;21.034;2023-02-15T10:13:44;102029.00;;;9.69;56.84
24996;BME280;13016;52.162;21.034;2023-02-15T10:21:47;102019.44;;;9.77;56.29
24996;BME280;13016;52.162;21.034;2023-02-15T10:27:07;102010.29;;;9.87;56.39
24996;BME280;13016;52.162;21.034;2023-02-15T10:29:38;102013.20;;;10.00;56.23
24996;BME280;13016;52.162;21.034;2023-02-15T10:34:53;102005.54;;;10.14;55.68
24996;BME280;13016;52.162;21.034;2023-02-15T10:40:11;101997.00;;;9.56;56.39
24996;BME280;13016;52.162;21.034;2023-02-15T10:47:55;101994.73;;;9.77;56.94
24996;BME280;13016;52.162;21.034;2023-02-15T10:56:18;101984.65;;;9.84;56.52
24996;BME280;13016;52.162;21.034;2023-02-15T11:07:15;101973.38;;;9.95;56.22
24996;BME280;13016;52.162;21.034;2023-02-15T11:09:41;101970.08;;;10.09;56.35
24996;BME280;13016;52.162;21.034;2023-02-15T11:12:12;101968.46;;;10.15;55.92
24996;BME280;13016;52.162;21.034;2023-02-15T11:14:45;101967.98;;;10.03;56.02
24996;BME280;13016;52.162;21.034;2023-02-15T11:17:16;101968.64;;;10.10;56.36
24996;BME280;13016;52.162;21.034;2023-02-15T11:19:56;101965.27;;;10.21;56.08
24996;BME280;13016;52.162;21.034;2023-02-15T11:22:25;101967.17;;;10.27;55.91
24996;BME280;13016;52.162;21.034;2023-02-15T11:24:51;101963.27;;;10.22;55.85
24996;BME280;13016;52.162;21.034;2023-02-15T11:27:41;101961.94;;;10.05;55.88
24996;BME280;13016;52.162;21.034;2023-02-15T11:30:12;101956.38;;;9.54;57.41
24996;BME280;13016;52.162;21.034;2023-02-15T11:32:46;101959.37;;;9.76;57.00
24996;BME280;13016;52.162;21.034;2023-02-15T11:38:13;101955.44;;;9.50;57.55
24996;BME280;13016;52.162;21.034;2023-02-15T11:41:21;101953.12;;;9.51;57.95
24996;BME280;13016;52.162;21.034;2023-02-15T11:46:13;101958.05;;;9.78;57.34
24996;BME280;13016;52.162;21.034;2023-02-15T11:48:39;101959.02;;;9.65;57.25
24996;BME280;13016;52.162;21.034;2023-02-15T11:51:04;101953.84;;;9.51;57.67
24996;BME280;13016;52.162;21.034;2023-02-15T11:53:50;101956.02;;;9.59;57.72
24996;BME280;13016;52.162;21.034;2023-02-15T11:56:19;101952.42;;;9.62;57.96
24996;BME280;13016;52.162;21.034;2023-02-15T11:58:58;101948.25;;;9.71;57.59
24996;BME280;13016;52.162;21.034;2023-02-15T12:01:37;101946.02;;;9.69;57.71
24996;BME280;13016;52.162;21.034;2023-02-15T12:06:41;101936.84;;;9.91;57.04
24996;BME280;13016;52.162;21.034;2023-02-15T12:09:52;101936.36;;;9.89;57.52
24996;BME280;13016;52.162;21.034;2023-02-15T12:12:26;101932.89;;;9.92;56.96
24996;BME280;13016;52.162;21.034;2023-02-15T12:15:00;101934.05;;;9.85;57.46
24996;BME280;13016;52.162;21.034;2023-02-15T12:18:00;101932.45;;;10.06;57.14
24996;BME280;13016;52.162;21.034;2023-02-15T12:20:50;101932.90;;;10.14;56.70
24996;BME280;13016;52.162;21.034;2023-02-15T12:26:26;101920.84;;;9.89;57.30
24996;BME280;13016;52.162;21.034;2023-02-15T12:28:52;101918.89;;;9.90;57.08
24996;BME280;13016;52.162;21.034;2023-02-15T12:31:52;101917.41;;;9.82;56.95
24996;BME280;13016;52.162;21.034;2023-02-15T12:34:21;101913.45;;;9.52;57.51
24996;BME280;13016;52.162;21.034;2023-02-15T12:36:50;101906.67;;;9.11;58.76
24996;BME280;13016;52.162;21.034;2023-02-15T12:39:22;101912.80;;;9.06;59.01
24996;BME280;13016;52.162;21.034;2023-02-15T12:44:28;101901.27;;;9.37;58.16
24996;BME280;13016;52.162;21.034;2023-02-15T12:47:03;101898.48;;;9.36;58.23
24996;BME280;13016;52.162;21.034;2023-02-15T12:49:34;101897.97;;;9.46;58.25
24996;BME280;13016;52.162;21.034;2023-02-15T12:52:02;101892.71;;;9.56;58.15
24996;BME280;13016;52.162;21.034;2023-02-15T12:54:39;101892.45;;;9.64;57.74
24996;BME280;13016;52.162;21.034;2023-02-15T12:57:29;101889.98;;;9.48;57.68
24996;BME280;13016;52.162;21.034;2023-02-15T13:00:04;101884.44;;;9.23;58.36
24996;BME280;13016;52.162;21.034;2023-02-15T13:05:54;101881.28;;;9.12;58.98
24996;BME280;13016;52.162;21.034;2023-02-15T13:08:10;101879.90;;;9.49;58.51
24996;BME280;13016;52.162;21.034;2023-02-15T13:11:06;101880.96;;;9.65;57.99
24996;BME280;13016;52.162;21.034;2023-02-15T13:13:36;101877.33;;;9.52;57.73
24996;BME280;13016;52.162;21.034;2023-02-15T13:16:13;101872.67;;;9.44;57.87
24996;BME280;13016;52.162;21.034;2023-02-15T13:18:50;101868.41;;;9.29;58.51
24996;BME280;13016;52.162;21.034;2023-02-15T13:21:47;101864.42;;;9.38;58.14
24996;BME280;13016;52.162;21.034;2023-02-15T13:27:26;101859.41;;;9.40;58.34
24996;BME280;13016;52.162;21.034;2023-02-15T13:29:56;101854.52;;;9.39;58.08
24996;BME280;13016;52.162;21.034;2023-02-15T13:32:36;101849.19;;;9.30;58.32
24996;BME280;13016;52.162;21.034;2023-02-15T13:35:04;101851.34;;;9.45;58.30
24996;BME280;13016;52.162;21.034;2023-02-15T13:37:45;101852.06;;;9.49;58.14
24996;BME280;13016;52.162;21.034;2023-02-15T13:40:32;101845.66;;;9.51;58.03
24996;BME280;13016;52.162;21.034;2023-02-15T14:00:54;101843.89;;;9.08;59.90
24996;BME280;13016;52.162;21.034;2023-02-15T14:13:11;101839.80;;;9.43;58.58
24996;BME280;13016;52.162;21.034;2023-02-15T14:18:59;101828.16;;;8.60;60.14
24996;BME280;13016;52.162;21.034;2023-02-15T14:21:48;101824.30;;;8.60;60.65
24996;BME280;13016;52.162;21.034;2023-02-15T14:24:42;101824.02;;;8.51;61.03
24996;BME280;13016;52.162;21.034;2023-02-15T14:30:45;101822.50;;;8.43;61.50
24996;BME280;13016;52.162;21.034;2023-02-15T14:35:40;101818.86;;;8.71;60.41
24996;BME280;13016;52.162;21.034;2023-02-15T14:44:22;101821.00;;;8.87;59.92
24996;BME280;13016;52.162;21.034;2023-02-15T14:47:04;101818.31;;;8.36;60.86
24996;BME280;13016;52.162;21.034;2023-02-15T14:49:33;101816.55;;;8.48;61.10
24996;BME280;13016;52.162;21.034;2023-02-15T14:52:11;101816.92;;;8.59;60.62
24996;BME280;13016;52.162;21.034;2023-02-15T14:59:38;101810.12;;;8.46;60.65
24996;BME280;13016;52.162;21.034;2023-02-15T15:04:33;101807.61;;;8.53;61.02
24996;BME280;13016;52.162;21.034;2023-02-15T15:07:07;101805.18;;;8.80;60.31
24996;BME280;13016;52.162;21.034;2023-02-15T15:09:37;101805.89;;;8.91;59.56
24996;BME280;13016;52.162;21.034;2023-02-15T15:14:50;101799.94;;;9.17;58.87
24996;BME280;13016;52.162;21.034;2023-02-15T15:19:59;101800.71;;;9.31;58.15
24996;BME280;13016;52.162;21.034;2023-02-15T15:22:26;101793.09;;;9.11;58.12
24996;BME280;13016;52.162;21.034;2023-02-15T15:24:59;101790.91;;;9.13;58.24
24996;BME280;13016;52.162;21.034;2023-02-15T15:33:12;101780.34;;;8.75;59.78
24996;BME280;13016;52.162;21.034;2023-02-15T15:41:17;101776.03;;;8.73;59.43
24996;BME280;13016;52.162;21.034;2023-02-15T15:49:10;101766.35;;;8.14;61.42
24996;BME280;13016;52.162;21.034;2023-02-15T15:51:40;101767.82;;;8.37;61.47
24996;BME280;13016;52.162;21.034;2023-02-15T15:54:24;101765.62;;;8.52;60.93
24996;BME280;13016;52.162;21.034;2023-02-15T15:56:58;101762.80;;;8.52;60.73
24996;BME280;13016;52.162;21.034;2023-02-15T15:59:30;101761.02;;;8.64;60.62
24996;BME280;13016;52.162;21.034;2023-02-15T16:02:04;101759.90;;;8.54;60.46
24996;BME280;13016;52.162;21.034;2023-02-15T16:04:33;101758.56;;;8.52;60.71
24996;BME280;13016;52.162;21.034;2023-02-15T16:07:14;101761.02;;;8.52;60.74
24996;BME280;13016;52.162;21.034;2023-02-15T16:10:28;101763.09;;;8.59;60.83
24996;BME280;13016;52.162;21.034;2023-02-15T16:12:55;101759.83;;;8.57;60.51
24996;BME280;13016;52.162;21.034;2023-02-15T16:15:23;101762.46;;;8.68;60.72
24996;BME280;13016;52.162;21.034;2023-02-15T16:17:52;101760.25;;;8.77;60.28
24996;BME280;13016;52.162;21.034;2023-02-15T16:22:47;101762.52;;;8.83;59.90
24996;BME280;13016;52.162;21.034;2023-02-15T16:25:22;101756.84;;;8.57;60.01
24996;BME280;13016;52.162;21.034;2023-02-15T16:27:51;101760.71;;;8.62;59.64